createdAt,value
2018-09-21T00:01:24.663Z,24.90
2018-09-21T00:04:01.527Z,24.80
2018-09-21T00:06:28.027Z,24.80
2018-09-21T00:08:54.493Z,24.80
2018-09-21T00:11:20.993Z,24.80
2018-09-21T00:13:47.929Z,24.80
2018-09-21T00:16:14.351Z,24.80
2018-09-21T00:18:41.229Z,24.80
2018-09-21T00:21:07.709Z,24.80
2018-09-21T00:23:34.188Z,24.90
2018-09-21T00:26:00.705Z,24.90
2018-09-21T00:28:27.388Z,24.80
2018-09-21T00:30:53.827Z,24.90
2018-09-21T00:33:20.263Z,24.80
2018-09-21T00:35:46.697Z,24.90
2018-09-21T00:38:13.113Z,24.90
2018-09-21T00:40:39.515Z,24.90
2018-09-21T00:43:06.005Z,24.90
2018-09-21T00:45:32.455Z,24.80
2018-09-21T00:47:58.917Z,24.80
2018-09-21T00:50:25.373Z,24.80
2018-09-21T00:52:51.838Z,24.80
2018-09-21T00:55:18.321Z,24.80
2018-09-21T00:57:44.792Z,24.80
2018-09-21T01:00:11.243Z,24.90
2018-09-21T01:02:37.696Z,24.80
2018-09-21T01:05:04.151Z,24.80
2018-09-21T01:07:30.574Z,24.80
2018-09-21T01:09:57.039Z,24.80
2018-09-21T01:12:23.480Z,24.80
2018-09-21T01:14:49.913Z,24.90
2018-09-21T01:17:16.318Z,24.80
2018-09-21T01:19:42.745Z,24.80
2018-09-21T01:22:09.161Z,24.80
2018-09-21T01:24:35.578Z,24.80
2018-09-21T01:27:02.016Z,24.90
2018-09-21T01:29:28.426Z,24.90
2018-09-21T01:31:54.869Z,24.80
2018-09-21T01:34:21.345Z,24.80
2018-09-21T01:36:47.748Z,24.80
2018-09-21T01:39:14.162Z,24.80
2018-09-21T01:41:40.594Z,24.80
2018-09-21T01:44:07.992Z,24.80
2018-09-21T01:46:34.432Z,24.80
2018-09-21T01:49:00.858Z,24.80
2018-09-21T01:51:28.260Z,24.80
2018-09-21T01:53:54.730Z,24.80
2018-09-21T01:56:21.153Z,24.80
2018-09-21T01:58:47.796Z,24.80
2018-09-21T02:01:14.229Z,24.80
2018-09-21T02:03:40.648Z,24.80
2018-09-21T02:06:07.106Z,24.80
2018-09-21T02:08:33.696Z,24.80
2018-09-21T02:11:00.167Z,24.80
2018-09-21T02:13:26.674Z,24.80
2018-09-21T02:15:53.194Z,24.80
2018-09-21T02:18:19.600Z,24.80
2018-09-21T02:20:46.062Z,24.80
2018-09-21T02:23:12.491Z,24.80
2018-09-21T02:25:38.977Z,24.80
2018-09-21T02:28:05.435Z,24.80
2018-09-21T02:30:31.866Z,24.80
2018-09-21T02:32:58.326Z,24.80
2018-09-21T02:35:24.751Z,24.80
2018-09-21T02:37:51.180Z,24.80
2018-09-21T02:40:17.677Z,24.80
2018-09-21T02:42:44.101Z,24.80
2018-09-21T02:45:10.549Z,24.80
2018-09-21T02:47:37.110Z,24.80
2018-09-21T02:50:03.571Z,24.80
2018-09-21T02:52:30.033Z,24.80
2018-09-21T02:54:56.472Z,24.80
2018-09-21T02:57:22.916Z,24.80
2018-09-21T02:59:50.175Z,24.80
2018-09-21T03:02:16.740Z,24.70
2018-09-21T03:04:48.972Z,24.80
2018-09-21T03:07:17.113Z,24.80
2018-09-21T03:09:43.526Z,24.70
2018-09-21T03:12:09.970Z,24.80
2018-09-21T03:14:36.403Z,24.80
2018-09-21T03:17:02.837Z,24.80
2018-09-21T03:19:29.650Z,24.80
2018-09-21T03:21:56.096Z,24.80
2018-09-21T03:24:22.512Z,24.80
2018-09-21T03:26:48.953Z,24.80
2018-09-21T03:29:15.485Z,24.80
2018-09-21T03:31:41.923Z,24.80
2018-09-21T03:34:08.378Z,24.80
2018-09-21T03:36:34.824Z,24.80
2018-09-21T03:39:01.334Z,24.70
2018-09-21T03:41:27.893Z,24.70
2018-09-21T03:43:54.304Z,24.70
2018-09-21T03:46:20.722Z,24.70
2018-09-21T03:48:47.309Z,24.70
2018-09-21T03:51:13.833Z,24.80
2018-09-21T03:53:40.227Z,24.80
2018-09-21T03:56:06.729Z,24.70
2018-09-21T03:58:33.146Z,24.80
2018-09-21T04:00:59.614Z,24.70
2018-09-21T04:03:26.059Z,24.70
2018-09-21T04:05:52.498Z,24.70
2018-09-21T04:08:18.945Z,24.70
2018-09-21T04:10:45.361Z,24.80
2018-09-21T04:13:11.797Z,24.70
2018-09-21T04:15:38.197Z,24.70
2018-09-21T04:18:04.629Z,24.70
2018-09-21T04:20:31.055Z,24.80
2018-09-21T04:22:59.758Z,24.70
2018-09-21T04:25:26.233Z,24.80
2018-09-21T04:27:52.698Z,24.80
2018-09-21T04:30:19.143Z,24.80
2018-09-21T04:32:45.577Z,24.70
2018-09-21T04:35:12.081Z,24.80
2018-09-21T04:37:38.610Z,24.70
2018-09-21T04:40:05.047Z,24.70
2018-09-21T04:42:31.509Z,24.70
2018-09-21T04:44:57.977Z,24.70
2018-09-21T04:47:24.418Z,24.70
2018-09-21T04:49:50.866Z,24.70
2018-09-21T04:52:17.470Z,24.70
2018-09-21T04:54:43.893Z,24.80
2018-09-21T04:57:10.360Z,24.80
2018-09-21T04:59:36.834Z,24.70
2018-09-21T05:02:03.293Z,24.70
2018-09-21T05:04:29.774Z,24.70
2018-09-21T05:06:56.180Z,24.80
2018-09-21T05:09:22.860Z,24.70
2018-09-21T05:11:49.364Z,24.80
2018-09-21T05:14:15.842Z,24.80
2018-09-21T05:16:42.246Z,24.80
2018-09-21T05:19:08.704Z,24.70
2018-09-21T05:21:35.139Z,24.80
2018-09-21T05:24:01.573Z,24.70
2018-09-21T05:26:27.970Z,24.70
2018-09-21T05:28:54.390Z,24.70
2018-09-21T05:31:20.824Z,24.70
2018-09-21T05:33:47.286Z,24.70
2018-09-21T05:36:13.748Z,24.70
2018-09-21T05:38:40.198Z,24.70
2018-09-21T05:41:06.645Z,24.70
2018-09-21T05:43:33.444Z,24.70
2018-09-21T05:45:59.906Z,24.70
2018-09-21T05:48:26.313Z,24.70
2018-09-21T05:50:52.754Z,24.70
2018-09-21T05:53:19.196Z,24.70
2018-09-21T05:55:45.598Z,24.70
2018-09-21T05:58:12.098Z,24.60
2018-09-21T06:00:38.546Z,24.70
2018-09-21T06:03:04.999Z,24.70
2018-09-21T06:05:31.424Z,24.60
2018-09-21T06:07:57.867Z,24.60
2018-09-21T06:10:24.313Z,24.60
2018-09-21T06:12:50.780Z,24.60
2018-09-21T06:15:17.244Z,24.60
2018-09-21T06:17:43.785Z,24.60
2018-09-21T06:20:12.881Z,24.60
2018-09-21T06:22:44.980Z,24.60
2018-09-21T06:25:03.175Z,24.70
2018-09-21T06:27:29.608Z,24.60
2018-09-21T06:29:56.028Z,24.60
2018-09-21T06:32:22.470Z,24.60
2018-09-21T06:34:48.892Z,24.60
2018-09-21T06:37:15.330Z,24.60
2018-09-21T06:39:41.786Z,24.60
2018-09-21T06:42:08.216Z,24.60
2018-09-21T06:44:34.675Z,24.60
2018-09-21T06:47:01.142Z,24.60
2018-09-21T06:49:27.774Z,24.60
2018-09-21T06:51:54.281Z,24.60
2018-09-21T06:54:20.850Z,24.60
2018-09-21T06:56:47.281Z,24.60
2018-09-21T06:59:13.931Z,24.60
2018-09-21T07:01:40.416Z,24.60
2018-09-21T07:04:06.877Z,24.60
2018-09-21T07:06:33.335Z,24.60
2018-09-21T07:08:59.762Z,24.60
2018-09-21T07:11:26.214Z,24.60
2018-09-21T07:13:52.635Z,24.60
2018-09-21T07:16:19.046Z,24.60
2018-09-21T07:18:45.487Z,24.60
2018-09-21T07:21:12.065Z,24.60
2018-09-21T07:23:38.519Z,24.60
2018-09-21T07:26:04.990Z,24.60
2018-09-21T07:28:31.451Z,24.60
2018-09-21T07:30:57.917Z,24.60
2018-09-21T07:33:24.355Z,24.70
2018-09-21T07:35:50.833Z,24.70
2018-09-21T07:38:17.254Z,24.60
2018-09-21T07:40:43.677Z,24.70
2018-09-21T07:43:10.120Z,24.70
2018-09-21T07:45:36.599Z,24.60
2018-09-21T07:48:03.066Z,24.60
2018-09-21T07:50:29.529Z,24.70
2018-09-21T07:52:55.976Z,24.60
2018-09-21T07:55:22.463Z,24.70
2018-09-21T07:57:48.903Z,24.60
2018-09-21T08:00:15.341Z,24.70
2018-09-21T08:02:41.804Z,24.70
2018-09-21T08:05:08.273Z,24.70
2018-09-21T08:07:34.706Z,24.70
2018-09-21T08:10:01.172Z,24.70
2018-09-21T08:12:27.590Z,24.70
2018-09-21T08:14:54.019Z,24.70
2018-09-21T08:17:20.629Z,24.70
2018-09-21T08:19:47.069Z,24.70
2018-09-21T08:22:13.665Z,24.70
2018-09-21T08:24:40.124Z,24.60
2018-09-21T08:27:08.451Z,24.60
2018-09-21T08:29:34.943Z,24.60
2018-09-21T08:32:01.367Z,24.60
2018-09-21T08:34:27.799Z,24.60
2018-09-21T08:36:54.233Z,24.60
2018-09-21T08:39:21.665Z,24.70
2018-09-21T08:41:48.103Z,24.70
2018-09-21T08:44:14.545Z,24.70
2018-09-21T08:46:41.006Z,24.70
2018-09-21T08:49:07.495Z,24.70
2018-09-21T08:51:33.920Z,24.70
2018-09-21T08:54:00.375Z,24.70
2018-09-21T08:56:26.859Z,24.80
2018-09-21T08:58:53.331Z,24.70
2018-09-21T09:01:19.817Z,24.80
2018-09-21T09:03:46.245Z,24.80
2018-09-21T09:06:12.687Z,24.80
2018-09-21T09:08:39.163Z,24.80
2018-09-21T09:11:05.642Z,24.80
2018-09-21T09:13:32.086Z,24.80
2018-09-21T09:15:58.543Z,24.80
2018-09-21T09:18:25.013Z,24.90
2018-09-21T09:20:51.433Z,24.80
2018-09-21T09:23:17.873Z,24.80
2018-09-21T09:25:44.286Z,24.80
2018-09-21T09:28:10.729Z,24.80
2018-09-21T09:30:37.554Z,24.90
2018-09-21T09:33:04.100Z,24.90
2018-09-21T09:35:30.597Z,24.80
2018-09-21T09:37:57.012Z,24.90
2018-09-21T09:40:23.564Z,24.80
2018-09-21T09:42:50.121Z,24.90
2018-09-21T09:45:16.543Z,24.80
2018-09-21T09:47:43.085Z,24.80
2018-09-21T09:50:09.548Z,24.90
2018-09-21T09:52:36.074Z,24.80
2018-09-21T09:55:02.523Z,24.80
2018-09-21T09:57:28.978Z,24.90
2018-09-21T09:59:55.416Z,24.90
2018-09-21T10:02:21.804Z,24.90
2018-09-21T10:04:48.273Z,24.90
2018-09-21T10:07:14.714Z,25.00
2018-09-21T10:09:41.173Z,25.00
2018-09-21T10:12:07.633Z,25.00
2018-09-21T10:14:34.104Z,25.00
2018-09-21T10:17:00.836Z,25.00
2018-09-21T10:19:27.350Z,25.00
2018-09-21T10:21:53.808Z,25.00
2018-09-21T10:24:20.294Z,25.00
2018-09-21T10:26:46.770Z,25.00
2018-09-21T10:29:13.327Z,25.00
2018-09-21T10:31:39.805Z,25.00
2018-09-21T10:34:06.240Z,25.00
2018-09-21T10:36:32.694Z,25.00
2018-09-21T10:38:59.184Z,25.00
2018-09-21T10:41:25.677Z,25.00
2018-09-21T10:43:52.090Z,25.00
2018-09-21T10:46:18.508Z,25.00
2018-09-21T10:48:45.007Z,25.00
2018-09-21T10:51:11.510Z,25.00
2018-09-21T10:53:38.272Z,25.00
2018-09-21T10:56:04.784Z,25.00
2018-09-21T10:58:31.270Z,25.00
2018-09-21T11:00:57.724Z,25.00
2018-09-21T11:03:24.192Z,25.00
2018-09-21T11:05:50.768Z,25.00
2018-09-21T11:08:17.245Z,25.00
2018-09-21T11:10:43.670Z,25.00
2018-09-21T11:13:10.104Z,25.00
2018-09-21T11:15:36.547Z,25.00
2018-09-21T11:18:03.001Z,25.00
2018-09-21T11:20:29.508Z,25.00
2018-09-21T11:22:55.973Z,25.00
2018-09-21T11:25:22.430Z,25.10
2018-09-21T11:27:48.906Z,25.00
2018-09-21T11:30:15.361Z,25.00
2018-09-21T11:32:41.914Z,25.00
2018-09-21T11:35:08.431Z,25.00
2018-09-21T11:37:34.979Z,25.00
2018-09-21T11:40:01.466Z,25.00
2018-09-21T11:42:27.871Z,25.00
2018-09-21T11:44:54.325Z,25.00
2018-09-21T11:47:20.905Z,25.10
2018-09-21T11:49:47.261Z,25.10
2018-09-21T11:52:13.745Z,25.10
2018-09-21T11:54:40.256Z,25.10
2018-09-21T11:57:06.693Z,25.10
2018-09-21T11:59:33.161Z,25.10
2018-09-21T12:01:59.601Z,25.10
2018-09-21T12:04:26.078Z,25.10
2018-09-21T12:06:52.539Z,25.10
2018-09-21T12:09:18.978Z,25.10
2018-09-21T12:11:45.386Z,25.10
2018-09-21T12:14:11.831Z,25.10
2018-09-21T12:16:38.643Z,25.10
2018-09-21T12:19:05.123Z,25.10
2018-09-21T12:21:31.618Z,25.10
2018-09-21T12:23:58.328Z,25.10
2018-09-21T12:26:24.812Z,25.10
2018-09-21T12:28:51.309Z,25.10
2018-09-21T12:31:17.955Z,25.10
2018-09-21T12:33:44.391Z,25.10
2018-09-21T12:36:10.861Z,25.10
2018-09-21T12:38:37.452Z,25.10
2018-09-21T12:41:03.791Z,25.10
2018-09-21T12:43:30.570Z,25.10
2018-09-21T12:45:56.985Z,25.10
2018-09-21T12:48:23.430Z,25.20
2018-09-21T12:50:49.899Z,25.10
2018-09-21T12:53:16.276Z,25.10
2018-09-21T12:55:42.749Z,25.10
2018-09-21T12:58:09.340Z,25.10
2018-09-21T13:00:41.804Z,25.10
2018-09-21T13:03:08.248Z,25.10
2018-09-21T13:05:34.715Z,25.10
2018-09-21T13:08:01.246Z,25.10
2018-09-21T13:10:27.703Z,25.10
2018-09-21T13:12:54.307Z,25.10
2018-09-21T13:15:20.938Z,25.10
2018-09-21T13:17:47.656Z,25.10
2018-09-21T13:20:14.147Z,25.10
2018-09-21T13:22:40.560Z,25.10
2018-09-21T13:25:07.005Z,25.10
2018-09-21T13:27:33.432Z,25.10
2018-09-21T13:29:59.877Z,25.10
2018-09-21T13:32:26.336Z,25.10
2018-09-21T13:34:52.733Z,25.10
2018-09-21T13:37:19.184Z,25.10
2018-09-21T13:39:45.581Z,25.10
2018-09-21T13:42:12.127Z,25.10
2018-09-21T13:44:38.553Z,25.10
2018-09-21T13:47:04.986Z,25.10
2018-09-21T13:49:31.894Z,25.10
2018-09-21T13:51:58.356Z,25.10
2018-09-21T13:54:24.782Z,25.10
2018-09-21T13:56:51.241Z,25.10
2018-09-21T13:59:17.746Z,25.10
2018-09-21T14:01:44.125Z,25.10
2018-09-21T14:04:10.597Z,25.10
2018-09-21T14:06:37.115Z,25.10
2018-09-21T14:09:04.668Z,25.10
2018-09-21T14:11:31.125Z,25.10
2018-09-21T14:13:57.593Z,25.20
2018-09-21T14:16:24.081Z,25.10
2018-09-21T14:18:50.557Z,25.10
2018-09-21T14:21:17.001Z,25.10
2018-09-21T14:23:43.480Z,25.10
2018-09-21T14:26:09.963Z,25.10
2018-09-21T14:28:36.394Z,25.20
2018-09-21T14:31:02.834Z,25.10
2018-09-21T14:33:29.325Z,25.10
2018-09-21T14:35:56.829Z,25.10
2018-09-21T14:38:23.341Z,25.20
2018-09-21T14:40:49.876Z,25.10
2018-09-21T14:43:16.287Z,25.20
2018-09-21T14:45:42.715Z,25.20
2018-09-21T14:48:09.109Z,25.20
2018-09-21T14:50:35.613Z,25.20
2018-09-21T14:53:02.293Z,25.20
2018-09-21T14:55:28.712Z,25.20
2018-09-21T14:57:55.181Z,25.20
2018-09-21T15:00:21.629Z,25.20
2018-09-21T15:02:48.323Z,25.20
2018-09-21T15:05:14.890Z,25.20
2018-09-21T15:07:41.306Z,25.20
2018-09-21T15:10:07.793Z,25.20
2018-09-21T15:12:34.297Z,25.20
2018-09-21T15:15:00.735Z,25.20
2018-09-21T15:17:27.287Z,25.20
2018-09-21T15:22:32.165Z,24.70
2018-09-21T15:24:58.617Z,25.20
2018-09-21T15:27:25.077Z,25.20
2018-09-21T15:29:51.517Z,25.20
2018-09-21T15:32:17.953Z,25.20
2018-09-21T15:34:45.184Z,25.20
2018-09-21T15:37:12.005Z,25.20
2018-09-21T15:39:38.427Z,25.20
2018-09-21T15:42:04.951Z,25.20
2018-09-21T15:44:31.378Z,25.20
2018-09-21T15:46:57.828Z,25.20
2018-09-21T15:49:24.824Z,25.10
2018-09-21T15:51:51.322Z,25.20
2018-09-21T15:54:17.757Z,25.10
2018-09-21T15:56:44.186Z,25.10
2018-09-21T15:59:10.623Z,25.10
2018-09-21T16:01:37.062Z,25.10
2018-09-21T16:04:03.750Z,25.10
2018-09-21T16:06:32.535Z,25.10
2018-09-21T16:08:59.006Z,25.10
2018-09-21T16:11:25.432Z,25.10
2018-09-21T16:13:51.936Z,25.10
2018-09-21T16:16:18.452Z,25.10
2018-09-21T16:18:44.899Z,25.10
2018-09-21T16:21:11.416Z,25.10
2018-09-21T16:23:37.832Z,25.10
2018-09-21T16:26:04.247Z,25.00
2018-09-21T16:28:30.706Z,25.10
2018-09-21T16:30:57.192Z,25.10
2018-09-21T16:33:23.688Z,25.00
2018-09-21T16:35:50.157Z,25.00
2018-09-21T16:38:16.618Z,25.10
2018-09-21T16:40:43.055Z,25.10
2018-09-21T16:43:09.709Z,25.10
2018-09-21T16:45:36.198Z,25.10
2018-09-21T16:48:02.747Z,25.10
2018-09-21T16:50:29.501Z,25.10
2018-09-21T16:52:55.939Z,25.10
2018-09-21T16:55:22.383Z,25.10
2018-09-21T16:57:48.967Z,25.10
2018-09-21T17:00:15.429Z,25.10
2018-09-21T17:02:41.858Z,25.10
2018-09-21T17:05:08.303Z,25.10
2018-09-21T17:07:34.747Z,25.10
2018-09-21T17:10:01.312Z,25.10
2018-09-21T17:12:27.781Z,25.10
2018-09-21T17:14:54.249Z,25.10
2018-09-21T17:17:20.693Z,25.10
2018-09-21T17:19:47.163Z,25.10
2018-09-21T17:22:13.599Z,25.10
2018-09-21T17:24:40.090Z,25.10
2018-09-21T17:27:06.561Z,25.10
2018-09-21T17:29:33.366Z,25.10
2018-09-21T17:32:00.001Z,25.10
2018-09-21T17:34:26.383Z,25.00
2018-09-21T17:36:52.844Z,25.00
2018-09-21T17:39:19.331Z,25.10
2018-09-21T17:41:45.746Z,25.10
2018-09-21T17:44:12.212Z,25.10
2018-09-21T17:46:38.673Z,25.10
2018-09-21T17:49:05.563Z,25.10
2018-09-21T17:51:31.989Z,25.10
2018-09-21T17:53:58.419Z,25.10
2018-09-21T17:56:24.864Z,25.10
2018-09-21T17:58:51.294Z,25.10
2018-09-21T18:01:17.758Z,25.00
2018-09-21T18:03:44.206Z,25.00
2018-09-21T18:06:10.638Z,25.00
2018-09-21T18:08:37.118Z,25.10
2018-09-21T18:11:03.622Z,25.10
2018-09-21T18:13:30.115Z,25.10
2018-09-21T18:15:56.636Z,25.10
2018-09-21T18:18:23.187Z,25.10
2018-09-21T18:20:49.613Z,25.10
2018-09-21T18:23:16.091Z,25.10
2018-09-21T18:25:42.651Z,25.00
2018-09-21T18:28:09.149Z,25.10
2018-09-21T18:30:35.676Z,25.00
2018-09-21T18:33:02.169Z,25.00
2018-09-21T18:35:28.679Z,25.00
2018-09-21T18:37:55.141Z,25.00
2018-09-21T18:40:21.597Z,25.00
2018-09-21T18:42:48.048Z,25.00
2018-09-21T18:45:14.714Z,25.00
2018-09-21T18:47:41.162Z,25.00
2018-09-21T18:50:07.596Z,25.10
2018-09-21T18:52:34.872Z,25.00
2018-09-21T18:55:01.334Z,25.00
2018-09-21T18:57:27.794Z,25.00
2018-09-21T18:59:54.232Z,25.00
2018-09-21T19:02:20.681Z,25.00
2018-09-21T19:04:47.159Z,25.00
2018-09-21T19:07:33.432Z,25.00
2018-09-21T19:10:00.361Z,25.00
2018-09-21T19:12:27.209Z,25.00
2018-09-21T19:14:53.748Z,25.00
2018-09-21T19:17:20.214Z,25.00
2018-09-21T19:19:46.712Z,25.00
2018-09-21T19:22:14.734Z,25.00
2018-09-21T19:24:42.319Z,25.00
2018-09-21T19:27:08.780Z,25.00
2018-09-21T19:29:35.297Z,25.00
2018-09-21T19:32:01.804Z,25.00
2018-09-21T19:34:28.265Z,25.00
2018-09-21T19:36:54.934Z,25.00
2018-09-21T19:39:21.412Z,25.00
2018-09-21T19:41:48.182Z,25.00
2018-09-21T19:44:14.633Z,25.00
2018-09-21T19:46:41.165Z,25.00
2018-09-21T19:49:07.675Z,25.00
2018-09-21T19:51:34.187Z,25.00
2018-09-21T19:54:00.625Z,25.00
2018-09-21T19:56:27.066Z,25.00
2018-09-21T19:58:53.548Z,25.00
2018-09-21T20:01:20.001Z,25.00
2018-09-21T20:03:46.464Z,25.00
2018-09-21T20:06:12.928Z,25.00
2018-09-21T20:08:39.391Z,25.00
2018-09-21T20:11:05.887Z,25.00
2018-09-21T20:13:32.358Z,25.00
2018-09-21T20:15:58.823Z,25.00
2018-09-21T20:18:25.271Z,25.00
2018-09-21T20:20:51.717Z,25.00
2018-09-21T20:23:18.182Z,25.00
2018-09-21T20:25:44.624Z,25.00
2018-09-21T20:28:11.108Z,25.00
2018-09-21T20:30:43.290Z,25.00
2018-09-21T20:33:15.386Z,24.90
2018-09-21T20:35:41.993Z,25.00
2018-09-21T20:38:08.440Z,25.00
2018-09-21T20:40:34.881Z,25.00
2018-09-21T20:43:01.428Z,25.00
2018-09-21T20:45:27.871Z,25.00
2018-09-21T20:47:54.322Z,25.00
2018-09-21T20:50:20.783Z,25.00
2018-09-21T20:52:47.219Z,24.90
2018-09-21T20:55:13.656Z,24.90
2018-09-21T20:57:40.138Z,24.90
2018-09-21T21:00:06.634Z,25.00
2018-09-21T21:02:33.233Z,24.90
2018-09-21T21:04:59.769Z,25.00
2018-09-21T21:07:26.213Z,24.90
2018-09-21T21:09:52.935Z,24.90
2018-09-21T21:12:19.487Z,24.90
2018-09-21T21:14:45.942Z,24.90
2018-09-21T21:17:12.641Z,25.00
2018-09-21T21:19:39.925Z,24.90
2018-09-21T21:22:06.375Z,24.90
2018-09-21T21:24:32.883Z,24.90
2018-09-21T21:26:59.460Z,24.90
2018-09-21T21:29:26.637Z,24.90
2018-09-21T21:31:53.095Z,24.90
2018-09-21T21:34:19.623Z,24.90
2018-09-21T21:36:46.127Z,24.90
2018-09-21T21:39:12.779Z,24.90
2018-09-21T21:41:39.213Z,24.90
2018-09-21T21:44:05.731Z,24.90
2018-09-21T21:46:32.172Z,24.90
2018-09-21T21:48:58.662Z,24.90
2018-09-21T21:51:25.130Z,24.90
2018-09-21T21:53:51.560Z,24.90
2018-09-21T21:56:18.538Z,24.90
2018-09-21T21:58:45.383Z,24.90
2018-09-21T22:01:18.392Z,24.90
2018-09-21T22:03:45.244Z,24.90
2018-09-21T22:06:12.314Z,24.90
2018-09-21T22:08:39.118Z,24.90
2018-09-21T22:11:10.497Z,24.90
2018-09-21T22:14:14.045Z,24.90
2018-09-21T22:16:41.179Z,24.90
2018-09-21T22:19:08.440Z,24.90
2018-09-21T22:21:35.015Z,24.80
2018-09-21T22:24:02.055Z,24.90
2018-09-21T22:26:28.518Z,24.80
2018-09-21T22:28:54.976Z,24.80
2018-09-21T22:31:21.444Z,24.90
2018-09-21T22:33:47.897Z,24.90
2018-09-21T22:36:14.346Z,24.90
2018-09-21T22:38:40.761Z,24.80
2018-09-21T22:41:07.221Z,24.80
2018-09-21T22:43:33.684Z,24.80
2018-09-21T22:46:00.184Z,24.80
2018-09-21T22:48:26.688Z,24.80
2018-09-21T22:50:53.292Z,24.80
2018-09-21T22:53:20.054Z,24.80
2018-09-21T22:55:46.500Z,24.80
2018-09-21T22:58:12.927Z,24.80
2018-09-21T23:00:39.404Z,24.80
2018-09-21T23:03:05.836Z,24.90
2018-09-21T23:05:32.317Z,24.80
2018-09-21T23:07:58.748Z,24.80
2018-09-21T23:10:25.179Z,24.80
2018-09-21T23:12:51.613Z,24.80
2018-09-21T23:15:18.078Z,24.80
2018-09-21T23:17:44.517Z,24.80
2018-09-21T23:20:10.954Z,24.80
2018-09-21T23:22:37.393Z,24.90
2018-09-21T23:25:03.850Z,24.90
2018-09-21T23:27:30.306Z,24.80
2018-09-21T23:29:56.733Z,24.80
2018-09-21T23:32:23.191Z,24.80
2018-09-21T23:34:49.649Z,24.80
2018-09-21T23:37:16.069Z,24.80
2018-09-21T23:39:42.511Z,24.80
2018-09-21T23:42:09.022Z,24.80
2018-09-21T23:44:35.451Z,24.80
2018-09-21T23:47:01.923Z,24.80
2018-09-21T23:49:28.407Z,24.80
2018-09-21T23:51:54.842Z,23.60
2018-09-21T23:54:21.305Z,24.80
2018-09-21T23:56:47.735Z,24.80
2018-09-21T23:59:14.165Z,24.80
